createdAt,value
2024-01-04T00:00:02.228Z,6.18
2024-01-04T00:02:31.905Z,7.50
2024-01-04T00:04:59.908Z,9.02
2024-01-04T00:07:27.460Z,9.77
2024-01-04T00:09:54.664Z,5.70
2024-01-04T00:12:22.125Z,7.60
2024-01-04T00:14:49.311Z,5.32
2024-01-04T00:17:16.764Z,3.65
2024-01-04T00:19:44.173Z,4.55
2024-01-04T00:22:11.578Z,4.88
2024-01-04T00:24:38.821Z,4.63
2024-01-04T00:27:07.131Z,4.85
2024-01-04T00:29:34.463Z,4.43
2024-01-04T00:32:01.951Z,5.80
2024-01-04T00:34:29.308Z,5.60
2024-01-04T00:36:58.419Z,6.57
2024-01-04T00:39:25.676Z,6.28
2024-01-04T00:41:54.630Z,5.95
2024-01-04T00:44:21.913Z,6.38
2024-01-04T00:46:49.378Z,4.72
2024-01-04T00:49:16.636Z,4.85
2024-01-04T00:51:44.229Z,6.43
2024-01-04T00:54:11.862Z,5.28
2024-01-04T00:56:39.434Z,5.03
2024-01-04T00:59:06.653Z,4.18
2024-01-04T01:01:34.494Z,6.72
2024-01-04T01:04:02.877Z,4.70
2024-01-04T01:06:30.634Z,3.22
2024-01-04T01:08:57.900Z,6.57
2024-01-04T01:11:25.467Z,3.88
2024-01-04T01:14:01.424Z,4.25
2024-01-04T01:16:28.878Z,6.25
2024-01-04T01:18:56.158Z,4.18
2024-01-04T01:21:23.828Z,4.60
2024-01-04T01:23:50.920Z,4.80
2024-01-04T01:26:18.511Z,4.45
2024-01-04T01:28:45.640Z,7.10
2024-01-04T01:31:13.126Z,5.18
2024-01-04T01:33:44.074Z,6.85
2024-01-04T01:36:12.006Z,3.95
2024-01-04T01:38:39.831Z,5.80
2024-01-04T01:41:07.254Z,6.03
2024-01-04T01:43:34.493Z,2.70
2024-01-04T01:46:02.872Z,4.05
2024-01-04T01:48:30.334Z,7.03
2024-01-04T01:50:58.911Z,3.83
2024-01-04T01:53:26.406Z,2.65
2024-01-04T01:55:54.135Z,3.90
2024-01-04T01:58:22.424Z,3.22
2024-01-04T02:00:50.184Z,1.38
2024-01-04T02:03:18.715Z,2.78
2024-01-04T02:05:46.566Z,2.30
2024-01-04T02:08:13.710Z,2.05
2024-01-04T02:10:41.206Z,1.85
2024-01-04T02:13:10.468Z,2.35
2024-01-04T02:15:37.910Z,2.63
2024-01-04T02:18:05.740Z,3.08
2024-01-04T02:20:33.447Z,2.88
2024-01-04T02:23:02.105Z,3.00
2024-01-04T02:25:30.699Z,3.63
2024-01-04T02:27:57.895Z,3.17
2024-01-04T02:30:25.584Z,1.73
2024-01-04T02:32:53.366Z,3.55
2024-01-04T02:35:20.928Z,4.30
2024-01-04T02:37:48.088Z,3.22
2024-01-04T02:40:15.557Z,8.43
2024-01-04T02:42:42.794Z,4.63
2024-01-04T02:45:10.501Z,3.40
2024-01-04T02:47:38.251Z,2.80
2024-01-04T02:50:06.126Z,3.70
2024-01-04T02:52:33.299Z,5.30
2024-01-04T02:55:00.742Z,5.70
2024-01-04T02:57:27.818Z,2.72
2024-01-04T02:59:55.276Z,4.10
2024-01-04T03:02:22.488Z,1.67
2024-01-04T03:04:49.930Z,1.95
2024-01-04T03:07:17.425Z,5.20
2024-01-04T03:09:44.937Z,3.38
2024-01-04T03:12:12.427Z,4.38
2024-01-04T03:14:39.855Z,2.20
2024-01-04T03:17:06.989Z,1.88
2024-01-04T03:19:34.422Z,2.60
2024-01-04T03:22:01.542Z,4.53
2024-01-04T03:24:28.996Z,2.97
2024-01-04T03:26:56.156Z,5.00
2024-01-04T03:29:23.576Z,1.85
2024-01-04T03:31:50.772Z,5.28
2024-01-04T03:34:18.306Z,2.55
2024-01-04T03:36:45.603Z,3.78
2024-01-04T03:39:13.581Z,3.33
2024-01-04T03:41:40.733Z,1.60
2024-01-04T03:44:08.265Z,2.28
2024-01-04T03:46:35.410Z,3.33
2024-01-04T03:49:03.056Z,2.15
2024-01-04T03:51:30.255Z,2.05
2024-01-04T03:53:59.652Z,2.72
2024-01-04T03:56:26.831Z,3.65
2024-01-04T03:58:54.254Z,4.07
2024-01-04T04:01:21.381Z,2.47
2024-01-04T04:03:48.992Z,2.90
2024-01-04T04:06:20.260Z,5.15
2024-01-04T04:08:47.777Z,4.57
2024-01-04T04:11:20.990Z,4.22
2024-01-04T04:13:48.498Z,3.83
2024-01-04T04:16:15.601Z,4.30
2024-01-04T04:18:43.798Z,3.53
2024-01-04T04:21:22.378Z,5.82
2024-01-04T04:23:51.471Z,5.93
2024-01-04T04:26:22.431Z,5.35
2024-01-04T04:28:50.528Z,4.68
2024-01-04T04:31:19.512Z,5.93
2024-01-04T04:33:48.530Z,6.45
2024-01-04T04:36:16.258Z,5.95
2024-01-04T04:38:43.849Z,7.53
2024-01-04T04:41:11.024Z,6.07
2024-01-04T04:43:38.444Z,5.22
2024-01-04T04:46:11.014Z,3.03
2024-01-04T04:48:39.330Z,4.00
2024-01-04T04:51:06.688Z,3.40
2024-01-04T04:53:34.185Z,1.77
2024-01-04T04:56:01.911Z,1.85
2024-01-04T04:58:32.364Z,2.20
2024-01-04T05:00:59.505Z,2.63
2024-01-04T05:03:27.042Z,3.28
2024-01-04T05:05:54.734Z,3.90
2024-01-04T05:08:22.244Z,3.95
2024-01-04T05:10:49.339Z,4.95
2024-01-04T05:13:16.750Z,5.22
2024-01-04T05:15:44.293Z,2.83
2024-01-04T05:18:14.502Z,3.65
2024-01-04T05:20:42.007Z,3.25
2024-01-04T05:23:09.513Z,6.13
2024-01-04T05:25:39.030Z,2.33
2024-01-04T05:28:07.824Z,2.80
2024-01-04T05:30:35.179Z,3.03
2024-01-04T05:33:02.747Z,1.00
2024-01-04T05:35:30.216Z,1.85
2024-01-04T05:37:57.610Z,1.45
2024-01-04T05:40:24.778Z,3.30
2024-01-04T05:42:53.431Z,1.77
2024-01-04T05:45:20.638Z,6.55
2024-01-04T05:47:48.189Z,2.05
2024-01-04T05:50:15.537Z,2.20
2024-01-04T05:52:42.930Z,1.77
2024-01-04T05:55:10.067Z,2.85
2024-01-04T05:57:37.530Z,2.08
2024-01-04T06:00:06.093Z,2.20
2024-01-04T06:02:33.588Z,2.67
2024-01-04T06:05:00.762Z,2.65
2024-01-04T06:07:29.738Z,3.10
2024-01-04T06:09:57.093Z,4.10
2024-01-04T06:12:24.540Z,5.53
2024-01-04T06:14:52.728Z,5.32
2024-01-04T06:17:20.275Z,6.28
2024-01-04T06:19:47.481Z,4.82
2024-01-04T06:22:15.145Z,5.38
2024-01-04T06:24:42.687Z,5.05
2024-01-04T06:27:10.254Z,5.03
2024-01-04T06:29:37.438Z,5.20
2024-01-04T06:32:05.200Z,7.63
2024-01-04T06:34:33.318Z,5.18
2024-01-04T06:37:00.800Z,7.35
2024-01-04T06:39:29.384Z,6.63
2024-01-04T06:41:58.042Z,6.53
2024-01-04T06:44:30.816Z,6.03
2024-01-04T06:47:05.587Z,6.78
2024-01-04T06:49:32.865Z,9.13
2024-01-04T06:52:00.342Z,7.82
2024-01-04T06:54:27.593Z,7.75
2024-01-04T06:56:55.060Z,8.73
2024-01-04T06:59:23.020Z,8.07
2024-01-04T07:01:50.411Z,7.63
2024-01-04T07:04:17.665Z,8.00
2024-01-04T07:06:45.084Z,7.80
2024-01-04T07:09:13.577Z,10.50
2024-01-04T07:11:41.022Z,10.52
2024-01-04T07:14:10.488Z,11.95
2024-01-04T07:16:45.575Z,10.43
2024-01-04T07:19:12.974Z,10.13
2024-01-04T07:21:43.865Z,8.18
2024-01-04T07:24:11.439Z,8.43
2024-01-04T07:26:39.020Z,7.93
2024-01-04T07:29:06.168Z,7.10
2024-01-04T07:31:33.644Z,9.20
2024-01-04T07:34:02.254Z,11.23
2024-01-04T07:36:30.305Z,11.30
2024-01-04T07:38:59.649Z,9.95
2024-01-04T07:41:27.307Z,10.63
2024-01-04T07:43:55.029Z,8.68
2024-01-04T07:46:22.423Z,11.15
2024-01-04T07:48:49.935Z,9.85
2024-01-04T07:51:17.540Z,8.45
2024-01-04T07:53:44.789Z,11.80
2024-01-04T07:56:12.209Z,9.63
2024-01-04T07:58:39.339Z,9.10
2024-01-04T08:01:07.999Z,10.55
2024-01-04T08:03:35.573Z,8.57
2024-01-04T08:06:03.516Z,8.57
2024-01-04T08:08:31.065Z,10.05
2024-01-04T08:11:01.056Z,10.93
2024-01-04T08:13:28.520Z,8.65
2024-01-04T08:15:56.491Z,12.82
2024-01-04T08:18:24.104Z,11.40
2024-01-04T08:20:51.948Z,11.23
2024-01-04T08:23:19.287Z,11.75
2024-01-04T08:25:47.308Z,9.88
2024-01-04T08:28:16.081Z,8.68
2024-01-04T08:30:44.187Z,11.90
2024-01-04T08:33:11.435Z,11.68
2024-01-04T08:35:38.956Z,6.65
2024-01-04T08:38:06.131Z,7.60
2024-01-04T08:40:38.113Z,8.38
2024-01-04T08:43:07.439Z,6.78
2024-01-04T08:45:35.063Z,10.02
2024-01-04T08:48:02.274Z,6.80
2024-01-04T08:50:29.972Z,10.05
2024-01-04T08:52:57.298Z,9.45
2024-01-04T08:55:24.700Z,7.22
2024-01-04T08:57:51.786Z,8.60
2024-01-04T09:00:19.621Z,7.50
2024-01-04T09:02:47.549Z,7.97
2024-01-04T09:05:15.487Z,6.55
2024-01-04T09:07:43.844Z,7.35
2024-01-04T09:10:11.292Z,7.90
2024-01-04T09:12:41.318Z,8.55
2024-01-04T09:15:09.754Z,8.75
2024-01-04T09:17:37.144Z,8.85
2024-01-04T09:20:05.104Z,6.88
2024-01-04T09:22:32.304Z,7.50
2024-01-04T09:25:00.827Z,5.47
2024-01-04T09:27:28.005Z,6.50
2024-01-04T09:29:56.308Z,6.85
2024-01-04T09:32:23.459Z,4.43
2024-01-04T09:34:51.355Z,4.65
2024-01-04T09:37:18.600Z,4.82
2024-01-04T09:39:45.971Z,3.25
2024-01-04T09:42:23.308Z,4.03
2024-01-04T09:44:54.695Z,4.28
2024-01-04T09:47:25.271Z,4.43
2024-01-04T09:49:53.460Z,5.80
2024-01-04T09:52:25.782Z,4.70
2024-01-04T09:54:54.583Z,4.07
2024-01-04T09:57:23.589Z,4.80
2024-01-04T09:59:51.197Z,6.70
2024-01-04T10:02:21.876Z,4.60
2024-01-04T10:04:51.251Z,4.57
2024-01-04T10:07:26.672Z,5.10
2024-01-04T10:10:04.436Z,6.53
2024-01-04T10:12:38.085Z,4.28
2024-01-04T10:15:06.022Z,6.50
2024-01-04T10:17:34.093Z,5.30
2024-01-04T10:20:04.322Z,4.72
2024-01-04T10:22:31.474Z,6.53
2024-01-04T10:25:08.785Z,8.32
2024-01-04T10:27:36.167Z,6.85
2024-01-04T10:30:05.671Z,7.68
2024-01-04T10:32:33.478Z,5.15
2024-01-04T10:35:10.798Z,6.28
2024-01-04T10:37:38.244Z,11.63
2024-01-04T10:40:06.928Z,8.95
2024-01-04T10:42:34.408Z,7.95
2024-01-04T10:45:02.935Z,6.18
2024-01-04T10:47:31.365Z,7.57
2024-01-04T10:50:00.311Z,5.93
2024-01-04T10:52:33.070Z,7.70
2024-01-04T10:55:03.766Z,6.43
2024-01-04T10:57:33.569Z,8.65
2024-01-04T11:00:04.727Z,5.93
2024-01-04T11:02:34.950Z,4.88
2024-01-04T11:05:03.302Z,5.57
2024-01-04T11:07:30.709Z,5.22
2024-01-04T11:09:58.250Z,6.25
2024-01-04T11:12:28.217Z,9.40
2024-01-04T11:14:55.807Z,6.20
2024-01-04T11:17:41.949Z,10.43
2024-01-04T11:20:29.903Z,6.25
2024-01-04T11:23:55.902Z,6.85
2024-01-04T11:26:31.291Z,5.50
2024-01-04T11:29:01.249Z,5.10
2024-01-04T11:31:29.423Z,5.75
2024-01-04T11:33:57.233Z,5.43
2024-01-04T11:36:25.181Z,6.07
2024-01-04T11:38:56.181Z,6.10
2024-01-04T11:41:32.886Z,8.25
2024-01-04T11:44:00.092Z,7.65
2024-01-04T11:46:28.277Z,8.30
2024-01-04T11:48:56.676Z,8.13
2024-01-04T11:51:45.848Z,9.00
2024-01-04T11:54:15.444Z,7.82
2024-01-04T11:56:43.289Z,7.82
2024-01-04T11:59:12.535Z,8.25
2024-01-04T12:01:44.948Z,4.15
2024-01-04T12:04:14.591Z,2.45
2024-01-04T12:06:44.076Z,2.85
2024-01-04T12:09:16.426Z,4.28
2024-01-04T12:11:58.225Z,4.78
2024-01-04T12:14:27.169Z,4.57
2024-01-04T12:16:54.882Z,9.05
2024-01-04T12:19:22.318Z,4.97
2024-01-04T12:21:50.231Z,5.43
2024-01-04T12:24:18.156Z,3.67
2024-01-04T12:26:47.032Z,3.67
2024-01-04T12:29:15.528Z,2.60
2024-01-04T12:31:45.947Z,4.25
2024-01-04T12:34:13.676Z,3.70
2024-01-04T12:36:41.449Z,4.68
2024-01-04T12:39:11.689Z,4.13
2024-01-04T12:41:41.178Z,3.45
2024-01-04T12:44:11.096Z,4.47
2024-01-04T12:46:40.751Z,3.58
2024-01-04T12:49:10.703Z,5.10
2024-01-04T12:51:40.574Z,7.72
2024-01-04T12:54:09.312Z,5.97
2024-01-04T12:56:37.056Z,6.32
2024-01-04T12:59:06.115Z,7.05
2024-01-04T13:01:34.311Z,6.20
2024-01-04T13:04:02.162Z,6.22
2024-01-04T13:06:30.211Z,6.30
2024-01-04T13:08:58.066Z,7.00
2024-01-04T13:11:26.298Z,6.72
2024-01-04T13:13:53.590Z,6.15
2024-01-04T13:16:21.081Z,6.18
2024-01-04T13:18:48.626Z,7.70
2024-01-04T13:21:16.431Z,6.75
2024-01-04T13:23:44.268Z,8.15
2024-01-04T13:26:11.839Z,9.77
2024-01-04T13:28:38.949Z,10.52
2024-01-04T13:31:07.295Z,12.20
2024-01-04T13:33:34.718Z,16.00
2024-01-04T13:36:02.804Z,16.23
2024-01-04T13:38:30.089Z,19.92
2024-01-04T13:40:57.580Z,17.17
2024-01-04T13:43:24.872Z,14.75
2024-01-04T13:45:53.765Z,17.70
2024-01-04T13:48:21.592Z,17.30
2024-01-04T13:50:49.364Z,17.20
2024-01-04T13:53:17.875Z,16.25
2024-01-04T13:55:45.593Z,16.38
2024-01-04T13:58:12.877Z,18.73
2024-01-04T14:00:40.703Z,16.10
2024-01-04T14:03:09.270Z,18.02
2024-01-04T14:05:40.698Z,19.60
2024-01-04T14:08:13.442Z,22.33
2024-01-04T14:10:43.859Z,23.48
2024-01-04T14:13:11.116Z,19.95
2024-01-04T14:15:38.850Z,20.90
2024-01-04T14:18:06.247Z,17.48
2024-01-04T14:20:33.805Z,19.27
2024-01-04T14:23:01.034Z,18.85
2024-01-04T14:25:28.669Z,19.83
2024-01-04T14:27:57.187Z,20.88
2024-01-04T14:30:24.937Z,19.95
2024-01-04T14:32:53.168Z,18.80
2024-01-04T14:35:23.268Z,18.48
2024-01-04T14:37:50.602Z,18.77
2024-01-04T14:40:18.508Z,19.85
2024-01-04T14:42:46.924Z,19.77
2024-01-04T14:45:18.603Z,19.38
2024-01-04T14:47:47.196Z,19.45
2024-01-04T14:50:17.442Z,18.92
2024-01-04T14:52:44.907Z,17.00
2024-01-04T14:55:14.030Z,16.40
2024-01-04T14:57:42.468Z,19.67
2024-01-04T15:00:20.900Z,15.23
2024-01-04T15:02:50.970Z,13.88
2024-01-04T15:05:18.611Z,18.40
2024-01-04T15:07:46.149Z,14.95
2024-01-04T15:10:13.652Z,15.15
2024-01-04T15:12:41.130Z,11.60
2024-01-04T15:15:20.605Z,9.57
2024-01-04T15:17:53.874Z,9.27
2024-01-04T15:20:22.376Z,13.20
2024-01-04T15:22:49.848Z,10.93
2024-01-04T15:25:17.618Z,12.27
2024-01-04T15:27:45.384Z,8.88
2024-01-04T15:30:16.572Z,10.52
2024-01-04T15:32:44.745Z,8.73
2024-01-04T15:35:12.230Z,11.82
2024-01-04T15:37:39.435Z,13.57
2024-01-04T15:40:07.759Z,13.18
2024-01-04T15:42:34.998Z,13.05
2024-01-04T15:45:02.677Z,12.27
2024-01-04T15:47:29.904Z,14.60
2024-01-04T15:49:57.508Z,14.02
2024-01-04T15:52:24.956Z,8.13
2024-01-04T15:54:52.488Z,7.88
2024-01-04T15:57:19.740Z,5.63
2024-01-04T15:59:47.424Z,4.82
2024-01-04T16:02:15.192Z,7.38
2024-01-04T16:04:42.799Z,3.40
2024-01-04T16:07:10.174Z,3.58
2024-01-04T16:09:37.767Z,3.78
2024-01-04T16:12:05.387Z,3.38
2024-01-04T16:14:35.084Z,4.47
2024-01-04T16:17:04.348Z,3.45
2024-01-04T16:19:31.994Z,4.25
2024-01-04T16:21:59.866Z,5.00
2024-01-04T16:24:27.463Z,4.50
2024-01-04T16:26:54.739Z,5.68
2024-01-04T16:29:22.385Z,4.28
2024-01-04T16:31:49.576Z,4.93
2024-01-04T16:34:17.281Z,4.10
2024-01-04T16:36:44.642Z,4.53
2024-01-04T16:39:14.194Z,5.13
2024-01-04T16:41:47.387Z,5.25
2024-01-04T16:44:15.806Z,4.43
2024-01-04T16:46:42.960Z,3.00
2024-01-04T16:49:10.647Z,5.75
2024-01-04T16:51:39.066Z,5.95
2024-01-04T16:54:07.932Z,4.28
2024-01-04T16:56:35.367Z,3.17
2024-01-04T16:59:02.855Z,2.50
2024-01-04T17:01:30.182Z,4.97
2024-01-04T17:04:01.570Z,4.45
2024-01-04T17:06:29.978Z,5.28
2024-01-04T17:08:57.652Z,5.43
2024-01-04T17:11:25.155Z,4.18
2024-01-04T17:13:52.737Z,6.40
2024-01-04T17:16:23.064Z,5.38
2024-01-04T17:18:51.222Z,4.28
2024-01-04T17:21:18.640Z,6.13
2024-01-04T17:23:46.291Z,4.75
2024-01-04T17:26:13.489Z,5.38
2024-01-04T17:28:44.119Z,7.03
2024-01-04T17:31:11.968Z,9.07
2024-01-04T17:33:39.852Z,8.25
2024-01-04T17:36:21.843Z,10.60
2024-01-04T17:38:55.443Z,12.85
2024-01-04T17:41:22.756Z,11.32
2024-01-04T17:43:50.229Z,5.80
2024-01-04T17:46:18.537Z,4.82
2024-01-04T17:48:46.215Z,5.13
2024-01-04T17:51:14.169Z,5.32
2024-01-04T17:53:41.639Z,5.28
2024-01-04T17:56:10.321Z,5.97
2024-01-04T17:58:37.809Z,5.13
2024-01-04T18:01:05.656Z,3.92
2024-01-04T18:03:33.178Z,5.75
2024-01-04T18:06:00.626Z,4.15
2024-01-04T18:08:28.091Z,5.35
2024-01-04T18:10:55.354Z,7.30
2024-01-04T18:13:23.457Z,5.85
2024-01-04T18:15:50.828Z,6.07
2024-01-04T18:18:18.681Z,5.90
2024-01-04T18:20:45.943Z,6.05
2024-01-04T18:23:14.887Z,5.60
2024-01-04T18:25:42.260Z,4.85
2024-01-04T18:28:10.168Z,7.15
2024-01-04T18:30:38.040Z,5.85
2024-01-04T18:33:05.967Z,6.95
2024-01-04T18:35:33.269Z,5.50
2024-01-04T18:38:00.996Z,4.45
2024-01-04T18:40:29.265Z,3.80
2024-01-04T18:42:56.736Z,6.22
2024-01-04T18:45:23.989Z,5.05
2024-01-04T18:47:51.786Z,5.45
2024-01-04T18:50:19.128Z,6.47
2024-01-04T18:52:46.757Z,6.32
2024-01-04T18:55:14.016Z,6.57
2024-01-04T18:57:41.537Z,5.53
2024-01-04T19:00:09.838Z,6.43
2024-01-04T19:02:37.414Z,7.95
2024-01-04T19:05:05.049Z,6.40
2024-01-04T19:07:32.519Z,5.25
2024-01-04T19:09:59.733Z,5.68
2024-01-04T19:12:27.397Z,4.00
2024-01-04T19:14:54.713Z,5.85
2024-01-04T19:17:22.216Z,4.25
2024-01-04T19:19:51.830Z,7.10
2024-01-04T19:22:19.390Z,5.60
2024-01-04T19:24:47.017Z,5.60
2024-01-04T19:27:14.646Z,6.30
2024-01-04T19:29:42.087Z,5.68
2024-01-04T19:32:10.060Z,5.50
2024-01-04T19:34:37.506Z,7.30
2024-01-04T19:37:05.254Z,7.40
2024-01-04T19:39:32.582Z,5.97
2024-01-04T19:42:00.274Z,5.88
2024-01-04T19:44:28.403Z,4.82
2024-01-04T19:46:56.917Z,8.73
2024-01-04T19:49:24.781Z,6.88
2024-01-04T19:51:52.386Z,5.60
2024-01-04T19:54:19.717Z,7.40
2024-01-04T19:56:47.415Z,7.95
2024-01-04T19:59:14.681Z,7.78
2024-01-04T20:01:44.833Z,7.53
2024-01-04T20:04:13.239Z,6.90
2024-01-04T20:06:41.088Z,5.25
2024-01-04T20:09:08.281Z,6.00
2024-01-04T20:11:35.795Z,6.13
2024-01-04T20:14:03.125Z,8.85
2024-01-04T20:16:30.596Z,11.07
2024-01-04T20:18:57.979Z,10.25
2024-01-04T20:21:25.928Z,7.95
2024-01-04T20:23:53.554Z,13.55
2024-01-04T20:26:21.438Z,10.93
2024-01-04T20:28:49.289Z,10.45
2024-01-04T20:31:17.103Z,10.80
2024-01-04T20:33:45.551Z,14.93
2024-01-04T20:36:14.118Z,19.80
2024-01-04T20:38:41.567Z,13.32
2024-01-04T20:41:09.677Z,11.90
2024-01-04T20:43:37.717Z,9.35
2024-01-04T20:46:05.333Z,11.50
2024-01-04T20:48:34.440Z,7.45
2024-01-04T20:51:02.103Z,6.68
2024-01-04T20:53:29.548Z,7.10
2024-01-04T20:55:57.835Z,7.07
2024-01-04T20:58:25.065Z,8.40
2024-01-04T21:00:52.647Z,7.85
2024-01-04T21:03:21.147Z,8.70
2024-01-04T21:05:48.979Z,4.25
2024-01-04T21:08:16.453Z,4.22
2024-01-04T21:10:44.757Z,6.38
2024-01-04T21:13:11.988Z,3.17
2024-01-04T21:15:41.904Z,5.82
2024-01-04T21:18:09.430Z,5.88
2024-01-04T21:20:37.230Z,6.00
2024-01-04T21:23:05.326Z,4.57
2024-01-04T21:25:32.946Z,7.25
2024-01-04T21:28:00.774Z,5.97
2024-01-04T21:30:28.553Z,11.50
2024-01-04T21:32:55.869Z,9.13
2024-01-04T21:35:23.408Z,7.80
2024-01-04T21:37:50.552Z,4.30
2024-01-04T21:40:17.963Z,2.20
2024-01-04T21:42:47.705Z,3.80
2024-01-04T21:45:15.861Z,3.22
2024-01-04T21:47:43.919Z,3.22
2024-01-04T21:50:11.872Z,3.10
2024-01-04T21:52:39.769Z,3.17
2024-01-04T21:55:07.498Z,1.83
2024-01-04T21:57:34.702Z,2.67
2024-01-04T22:00:05.339Z,5.18
2024-01-04T22:02:33.472Z,4.53
2024-01-04T22:05:01.022Z,3.72
2024-01-04T22:07:28.227Z,4.55
2024-01-04T22:09:55.605Z,4.63
2024-01-04T22:12:22.737Z,3.55
2024-01-04T22:14:50.287Z,1.77
2024-01-04T22:17:17.415Z,1.83
2024-01-04T22:19:45.075Z,3.20
2024-01-04T22:22:12.459Z,2.25
2024-01-04T22:24:39.865Z,1.98
2024-01-04T22:27:07.282Z,2.72
2024-01-04T22:29:36.201Z,2.95
2024-01-04T22:32:04.171Z,3.22
2024-01-04T22:34:31.768Z,2.92
2024-01-04T22:36:59.512Z,2.65
2024-01-04T22:39:26.935Z,2.80
2024-01-04T22:41:54.149Z,3.35
2024-01-04T22:44:21.937Z,3.13
2024-01-04T22:46:49.028Z,3.92
2024-01-04T22:49:16.476Z,2.53
2024-01-04T22:51:44.322Z,3.00
2024-01-04T22:54:11.769Z,2.78
2024-01-04T22:56:38.903Z,2.42
2024-01-04T22:59:06.251Z,2.42
2024-01-04T23:01:33.453Z,1.02
2024-01-04T23:04:01.290Z,1.92
2024-01-04T23:06:28.672Z,3.42
2024-01-04T23:08:56.155Z,3.40
2024-01-04T23:11:23.304Z,2.42
2024-01-04T23:13:50.668Z,3.05
2024-01-04T23:16:18.742Z,3.90
2024-01-04T23:18:46.324Z,3.63
2024-01-04T23:21:13.585Z,3.30
2024-01-04T23:23:42.026Z,3.65
2024-01-04T23:26:09.151Z,2.50
2024-01-04T23:28:38.940Z,2.70
2024-01-04T23:31:06.172Z,4.13
2024-01-04T23:33:40.075Z,3.17
2024-01-04T23:36:10.658Z,3.05
2024-01-04T23:38:38.299Z,3.10
2024-01-04T23:41:05.534Z,1.38
2024-01-04T23:43:32.961Z,1.77
2024-01-04T23:46:00.080Z,1.85
2024-01-04T23:48:27.568Z,3.15
2024-01-04T23:50:54.861Z,3.17
2024-01-04T23:53:22.230Z,2.00
2024-01-04T23:55:49.424Z,3.07
2024-01-04T23:58:17.183Z,3.10
